• Join FlightAware (Why Join?)
  • Login
  • US Flag 
11:20PM EDT


 

Airport Tracker/Info


-or-


 

Live Flight TrackerFlight Track Log ✈ ZS-SXA ✈ 18-Apr-2013 ✈ GOOY / DKR - FAOR / JNB

Flight Track Log - Related Links

Times and Time Zones

All times are in EDT time to prevent confusion due to time zone crossing. See the ZS-SXA flight status page for this flight to view local times or setup timezone preferences in your user account.

Time Position Orientation Groundspeed Altitude Reporting Facility
EDT Latitude Longitude Course Direction KTS MPH feet Rate Location/Type
03:12AM 12.8407 -15.3625 132° Southeast  Level Estimated
03:13AM 12.7499 -15.2620 133° Southeast  Level Estimated
03:14AM 12.6589 -15.1616 133° Southeast  Level Estimated
03:15AM 12.5680 -15.0612 133° Southeast  Level Estimated
03:16AM 12.4770 -14.9610 133° Southeast  Level Estimated
03:17AM 12.3860 -14.8608 133° Southeast  Level Estimated
03:18AM 12.2949 -14.7606 133° Southeast  Level Estimated
03:19AM 12.2038 -14.6606 133° Southeast  Level Estimated
03:20AM 12.1127 -14.5606 133° Southeast  Level Estimated
03:21AM 12.0215 -14.4607 133° Southeast  Level Estimated
03:22AM 11.9303 -14.3608 133° Southeast  Level Estimated
03:23AM 11.8391 -14.2610 133° Southeast  Level Estimated
03:24AM 11.7478 -14.1613 133° Southeast  Level Estimated
03:25AM 11.6565 -14.0617 133° Southeast  Level Estimated
03:26AM 11.5652 -13.9621 133° Southeast  Level Estimated
03:27AM 11.4738 -13.8625 133° Southeast  Level Estimated
03:28AM 11.3824 -13.7631 133° Southeast  Level Estimated
03:29AM 11.2910 -13.6637 133° Southeast  Level Estimated
03:30AM 11.1995 -13.5644 133° Southeast  Level Estimated
03:31AM 11.1080 -13.4651 133° Southeast  Level Estimated
03:32AM 11.0164 -13.3659 133° Southeast  Level Estimated
03:33AM 10.9249 -13.2667 133° Southeast  Level Estimated
03:34AM 10.8333 -13.1677 133° Southeast  Level Estimated
03:35AM 10.7416 -13.0686 133° Southeast  Level Estimated
03:36AM 10.6500 -12.9697 133° Southeast  Level Estimated
03:37AM 10.5583 -12.8708 133° Southeast  Level Estimated
03:38AM 10.4665 -12.7719 133° Southeast  Level Estimated
03:39AM 10.3748 -12.6732 133° Southeast  Level Estimated
03:40AM 10.2830 -12.5744 133° Southeast  Level Estimated
03:41AM 10.1912 -12.4757 133° Southeast  Level Estimated
03:42AM 10.0993 -12.3771 133° Southeast  Level Estimated
03:43AM 10.0074 -12.2786 133° Southeast  Level Estimated
03:44AM 9.9155 -12.1801 133° Southeast  Level Estimated
03:45AM 9.8236 -12.0816 133° Southeast  Level Estimated
03:46AM 9.7316 -11.9832 133° Southeast  Level Estimated
03:47AM 9.6396 -11.8849 133° Southeast  Level Estimated
03:48AM 9.5476 -11.7866 134° Southeast  Level Estimated
03:49AM 9.4556 -11.6884 134° Southeast  Level Estimated
03:50AM 9.3635 -11.5902 134° Southeast  Level Estimated
03:51AM 9.2714 -11.4921 134° Southeast  Level Estimated
03:52AM 9.1793 -11.3940 134° Southeast  Level Estimated
03:53AM 9.0871 -11.2960 134° Southeast  Level Estimated
03:54AM 8.9949 -11.1980 134° Southeast  Level Estimated
03:55AM 8.9027 -11.1001 134° Southeast  Level Estimated
03:56AM 8.8105 -11.0022 134° Southeast  Level Estimated
03:57AM 8.7182 -10.9044 134° Southeast  Level Estimated
03:58AM 8.6259 -10.8066 134° Southeast  Level Estimated
03:59AM 8.5336 -10.7089 134° Southeast  Level Estimated
04:00AM 8.4413 -10.6112 134° Southeast  Level Estimated
04:01AM 8.3490 -10.5136 134° Southeast  Level Estimated
04:02AM 8.2566 -10.4160 134° Southeast  Level Estimated
04:03AM 8.1642 -10.3185 134° Southeast  Level Estimated
04:04AM 8.0717 -10.2210 134° Southeast  Level Estimated
04:05AM 7.9793 -10.1235 134° Southeast  Level Estimated
04:06AM 7.8868 -10.0261 134° Southeast  Level Estimated
04:07AM 7.7943 -9.9287 134° Southeast  Level Estimated
04:08AM 7.7018 -9.8314 134° Southeast  Level Estimated
04:09AM 7.6093 -9.7341 134° Southeast  Level Estimated
04:10AM 7.5167 -9.6369 134° Southeast  Level Estimated
04:11AM 7.4241 -9.5397 134° Southeast  Level Estimated
04:12AM 7.3315 -9.4425 134° Southeast  Level Estimated
04:13AM 7.2389 -9.3454 134° Southeast  Level Estimated
04:14AM 7.1463 -9.2483 134° Southeast  Level Estimated
04:15AM 7.0536 -9.1513 134° Southeast  Level Estimated
04:16AM 6.9609 -9.0543 134° Southeast  Level Estimated
04:17AM 6.8682 -8.9573 134° Southeast  Level Estimated
04:18AM 6.7755 -8.8604 134° Southeast  Level Estimated
04:19AM 6.6827 -8.7635 134° Southeast  Level Estimated
04:20AM 6.5900 -8.6667 134° Southeast  Level Estimated
04:21AM 6.4972 -8.5699 134° Southeast  Level Estimated
04:22AM 6.4044 -8.4731 134° Southeast  Level Estimated
04:23AM 6.3116 -8.3764 134° Southeast  Level Estimated
04:24AM 6.2187 -8.2796 134° Southeast  Level Estimated
04:25AM 6.1259 -8.1830 134° Southeast  Level Estimated
04:26AM 6.0330 -8.0863 134° Southeast  Level Estimated
04:27AM 5.9401 -7.9897 134° Southeast  Level Estimated
04:28AM 5.8472 -7.8932 134° Southeast  Level Estimated
04:29AM 5.7543 -7.7966 134° Southeast  Level Estimated
04:30AM 5.6614 -7.7001 134° Southeast  Level Estimated
04:31AM 5.5684 -7.6036 134° Southeast  Level Estimated
04:32AM 5.4755 -7.5072 134° Southeast  Level Estimated
04:33AM 5.3825 -7.4108 134° Southeast  Level Estimated
04:34AM 5.2895 -7.3144 134° Southeast  Level Estimated
04:35AM 5.1965 -7.2180 134° Southeast  Level Estimated
04:36AM 5.1034 -7.1217 134° Southeast  Level Estimated
04:37AM 5.0104 -7.0254 134° Southeast  Level Estimated
04:38AM 4.9173 -6.9291 134° Southeast  Level Estimated
04:39AM 4.8243 -6.8329 134° Southeast  Level Estimated
04:40AM 4.7312 -6.7366 134° Southeast  Level Estimated
04:41AM 4.6381 -6.6404 134° Southeast  Level Estimated
04:42AM 4.5450 -6.5443 134° Southeast  Level Estimated
04:43AM 4.4518 -6.4481 134° Southeast  Level Estimated
04:44AM 4.3587 -6.3520 134° Southeast  Level Estimated
04:45AM 4.2656 -6.2559 134° Southeast  Level Estimated
04:46AM 4.1724 -6.1598 134° Southeast  Level Estimated
04:47AM 4.0792 -6.0638 134° Southeast  Level Estimated
04:48AM 3.9860 -5.9678 134° Southeast  Level Estimated
04:49AM 3.8929 -5.8717 134° Southeast  Level Estimated
04:50AM 3.7996 -5.7758 134° Southeast  Level Estimated
04:51AM 3.7064 -5.6798 134° Southeast  Level Estimated
04:52AM 3.6132 -5.5838 134° Southeast  Level Estimated
04:53AM 3.5200 -5.4879 134° Southeast  Level Estimated
04:54AM 3.4267 -5.3920 134° Southeast  Level Estimated
04:55AM 3.3335 -5.2961 134° Southeast  Level Estimated
04:56AM 3.2402 -5.2003 134° Southeast  Level Estimated
04:57AM 3.1469 -5.1044 134° Southeast  Level Estimated
04:58AM 3.0536 -5.0086 134° Southeast  Level Estimated
04:59AM 2.9603 -4.9128 134° Southeast  Level Estimated
05:00AM 2.8670 -4.8170 134° Southeast  Level Estimated
05:01AM 2.7737 -4.7212 134° Southeast  Level Estimated
05:02AM 2.6804 -4.6254 134° Southeast  Level Estimated
05:03AM 2.5871 -4.5296 134° Southeast  Level Estimated
05:04AM 2.4938 -4.4339 134° Southeast  Level Estimated
05:05AM 2.4004 -4.3382 134° Southeast  Level Estimated
05:06AM 2.3071 -4.2425 134° Southeast  Level Estimated
05:07AM 2.2137 -4.1467 134° Southeast  Level Estimated
05:08AM 2.1204 -4.0511 134° Southeast  Level Estimated
05:09AM 2.0270 -3.9554 134° Southeast  Level Estimated
05:10AM 1.9336 -3.8597 134° Southeast  Level Estimated
05:11AM 1.8403 -3.7641 134° Southeast  Level Estimated
05:12AM 1.7469 -3.6684 134° Southeast  Level Estimated
05:13AM 1.6535 -3.5728 134° Southeast  Level Estimated
05:14AM 1.5601 -3.4771 134° Southeast  Level Estimated
05:15AM 1.4667 -3.3815 134° Southeast  Level Estimated
05:16AM 1.3733 -3.2859 134° Southeast  Level Estimated
05:17AM 1.2799 -3.1903 134° Southeast  Level Estimated
05:18AM 1.1865 -3.0947 134° Southeast  Level Estimated
05:19AM 1.0931 -2.9991 134° Southeast  Level Estimated
05:20AM 0.9997 -2.9035 134° Southeast  Level Estimated
05:21AM 0.9063 -2.8079 134° Southeast  Level Estimated
05:22AM 0.8129 -2.7124 134° Southeast  Level Estimated
05:23AM 0.7195 -2.6168 134° Southeast  Level Estimated
05:24AM 0.6260 -2.5212 134° Southeast  Level Estimated
05:25AM 0.5326 -2.4257 134° Southeast  Level Estimated
05:26AM 0.4392 -2.3301 134° Southeast  Level Estimated
05:27AM 0.3458 -2.2345 134° Southeast  Level Estimated
05:28AM 0.2524 -2.1390 134° Southeast  Level Estimated
05:29AM 0.1589 -2.0434 134° Southeast  Level Estimated
05:30AM 0.0655 -1.9479 134° Southeast  Level Estimated
05:31AM -0.0279 -1.8523 134° Southeast  Level Estimated
05:32AM -0.1214 -1.7568 134° Southeast  Level Estimated
05:33AM -0.2148 -1.6612 134° Southeast  Level Estimated
05:34AM -0.3082 -1.5657 134° Southeast  Level Estimated
05:35AM -0.4017 -1.4701 134° Southeast  Level Estimated
05:36AM -0.4951 -1.3745 134° Southeast  Level Estimated
05:37AM -0.5885 -1.2790 134° Southeast  Level Estimated
05:38AM -0.6819 -1.1834 134° Southeast  Level Estimated
05:39AM -0.7753 -1.0878 134° Southeast  Level Estimated
05:40AM -0.8687 -0.9923 134° Southeast  Level Estimated
05:41AM -0.9622 -0.8967 134° Southeast  Level Estimated
05:42AM -1.0556 -0.8011 134° Southeast  Level Estimated
05:43AM -1.1490 -0.7055 134° Southeast  Level Estimated
05:44AM -1.2424 -0.6099 134° Southeast  Level Estimated
05:45AM -1.3358 -0.5143 134° Southeast  Level Estimated
05:46AM -1.4292 -0.4187 134° Southeast  Level Estimated
05:47AM -1.5226 -0.3231 134° Southeast  Level Estimated
05:48AM -1.6160 -0.2275 134° Southeast  Level Estimated
05:49AM -1.7094 -0.1318 134° Southeast  Level Estimated
05:50AM -1.8027 -0.0362 134° Southeast  Level Estimated
05:51AM -1.8961 0.0595 134° Southeast  Level Estimated
05:52AM -1.9895 0.1551 134° Southeast  Level Estimated
05:53AM -2.0828 0.2508 134° Southeast  Level Estimated
05:54AM -2.1762 0.3465 134° Southeast  Level Estimated
05:55AM -2.2696 0.4422 134° Southeast  Level Estimated
05:56AM -2.3629 0.5379 134° Southeast  Level Estimated
05:57AM -2.4562 0.6336 134° Southeast  Level Estimated
05:58AM -2.5496 0.7293 134° Southeast  Level Estimated
05:59AM -2.6429 0.8251 134° Southeast  Level Estimated
06:00AM -2.7362 0.9208 134° Southeast  Level Estimated
06:01AM -2.8295 1.0166 134° Southeast  Level Estimated
06:02AM -2.9228 1.1124 134° Southeast  Level Estimated
06:03AM -3.0161 1.2082 134° Southeast  Level Estimated
06:04AM -3.1094 1.3041 134° Southeast  Level Estimated
06:05AM -3.2027 1.3999 134° Southeast  Level Estimated
06:06AM -3.2960 1.4958 134° Southeast  Level Estimated
06:07AM -3.3892 1.5916 134° Southeast  Level Estimated
06:08AM -3.4825 1.6875 134° Southeast  Level Estimated
06:09AM -3.5757 1.7835 134° Southeast  Level Estimated
06:10AM -3.6690 1.8794 134° Southeast  Level Estimated
06:11AM -3.7622 1.9754 134° Southeast  Level Estimated
06:12AM -3.8554 2.0713 134° Southeast  Level Estimated
06:13AM -3.9486 2.1673 134° Southeast  Level Estimated
06:14AM -4.0418 2.2634 134° Southeast  Level Estimated
06:15AM -4.1350 2.3594 134° Southeast  Level Estimated
06:16AM -4.2281 2.4555 134° Southeast  Level Estimated
06:17AM -4.3213 2.5515 134° Southeast  Level Estimated
06:18AM -4.4144 2.6477 134° Southeast  Level Estimated
06:19AM -4.5075 2.7438 134° Southeast  Level Estimated
06:20AM -4.6006 2.8400 134° Southeast  Level Estimated
06:21AM -4.6937 2.9362 134° Southeast  Level Estimated
06:22AM -4.7868 3.0324 134° Southeast  Level Estimated
06:23AM -4.8799 3.1286 134° Southeast  Level Estimated
06:24AM -4.9730 3.2249 134° Southeast  Level Estimated
06:25AM -5.0660 3.3212 134° Southeast  Level Estimated
06:26AM -5.1591 3.4175 134° Southeast  Level Estimated
06:27AM -5.2521 3.5138 134° Southeast  Level Estimated
06:28AM -5.3451 3.6102 134° Southeast  Level Estimated
06:29AM -5.4381 3.7066 134° Southeast  Level Estimated
06:30AM -5.5311 3.8030 134° Southeast  Level Estimated
06:31AM -5.6240 3.8995 134° Southeast  Level Estimated
06:32AM -5.7169 3.9960 134° Southeast  Level Estimated
06:33AM -5.8099 4.0925 134° Southeast  Level Estimated
06:34AM -5.9028 4.1891 134° Southeast  Level Estimated
06:35AM -5.9957 4.2857 134° Southeast  Level Estimated
06:36AM -6.0886 4.3823 134° Southeast  Level Estimated
06:37AM -6.1814 4.4790 134° Southeast  Level Estimated
06:38AM -6.2743 4.5756 134° Southeast  Level Estimated
06:39AM -6.3671 4.6724 134° Southeast  Level Estimated
06:40AM -6.4599 4.7691 134° Southeast  Level Estimated
06:41AM -6.5527 4.8659 134° Southeast  Level Estimated
06:42AM -6.6455 4.9628 134° Southeast  Level Estimated
06:43AM -6.7382 5.0596 134° Southeast  Level Estimated
06:44AM -6.8309 5.1565 134° Southeast  Level Estimated
06:45AM -6.9236 5.2535 134° Southeast  Level Estimated
06:46AM -7.0163 5.3505 134° Southeast  Level Estimated
06:47AM -7.1090 5.4475 134° Southeast  Level Estimated
06:48AM -7.2017 5.5445 134° Southeast  Level Estimated
06:49AM -7.2943 5.6416 134° Southeast  Level Estimated
06:50AM -7.3869 5.7388 134° Southeast  Level Estimated
06:51AM -7.4795 5.8360 134° Southeast  Level Estimated
06:52AM -7.5721 5.9332 134° Southeast  Level Estimated
06:53AM -7.6646 6.0304 134° Southeast  Level Estimated
06:54AM -7.7571 6.1277 134° Southeast  Level Estimated
06:55AM -7.8496 6.2251 134° Southeast  Level Estimated
06:56AM -7.9421 6.3225 134° Southeast  Level Estimated
06:57AM -8.0346 6.4199 134° Southeast  Level Estimated
06:58AM -8.1270 6.5174 134° Southeast  Level Estimated
06:59AM -8.2194 6.6149 134° Southeast  Level Estimated
07:00AM -8.3118 6.7125 134° Southeast  Level Estimated
07:01AM -8.4042 6.8101 134° Southeast  Level Estimated
07:02AM -8.4965 6.9078 134° Southeast  Level Estimated
07:03AM -8.5888 7.0055 134° Southeast  Level Estimated
07:04AM -8.6811 7.1033 134° Southeast  Level Estimated
07:05AM -8.7734 7.2011 134° Southeast  Level Estimated
07:06AM -8.8656 7.2989 134° Southeast  Level Estimated
07:07AM -8.9579 7.3968 134° Southeast  Level Estimated
07:08AM -9.0500 7.4948 134° Southeast  Level Estimated
07:09AM -9.1422 7.5928 134° Southeast  Level Estimated
07:10AM -9.2344 7.6908 134° Southeast  Level Estimated
07:11AM -9.3265 7.7889 134° Southeast  Level Estimated
07:12AM -9.4186 7.8871 134° Southeast  Level Estimated
07:13AM -9.5106 7.9853 134° Southeast  Level Estimated
07:14AM -9.6026 8.0836 134° Southeast  Level Estimated
07:15AM -9.6946 8.1819 134° Southeast  Level Estimated
07:16AM -9.7866 8.2802 133° Southeast  Level Estimated
07:17AM -9.8786 8.3787 133° Southeast  Level Estimated
07:18AM -9.9705 8.4771 133° Southeast  Level Estimated
07:19AM -10.0624 8.5757 133° Southeast  Level Estimated
07:20AM -10.1543 8.6743 133° Southeast  Level Estimated
07:21AM -10.2461 8.7729 133° Southeast  Level Estimated
07:22AM -10.3379 8.8716 133° Southeast  Level Estimated
07:23AM -10.4297 8.9704 133° Southeast  Level Estimated
07:24AM -10.5214 9.0692 133° Southeast  Level Estimated
07:25AM -10.6131 9.1681 133° Southeast  Level Estimated
07:26AM -10.7048 9.2670 133° Southeast  Level Estimated
07:27AM -10.7964 9.3660 133° Southeast  Level Estimated
07:28AM -10.8881 9.4651 133° Southeast  Level Estimated
07:29AM -10.9796 9.5642 133° Southeast  Level Estimated
07:30AM -11.0712 9.6634 133° Southeast  Level Estimated
07:31AM -11.1627 9.7626 133° Southeast  Level Estimated
07:32AM -11.2542 9.8619 133° Southeast  Level Estimated
07:33AM -11.3456 9.9613 133° Southeast  Level Estimated
07:34AM -11.4371 10.0607 133° Southeast  Level Estimated
07:35AM -11.5285 10.1602 133° Southeast  Level Estimated
07:36AM -11.6198 10.2598 133° Southeast  Level Estimated
07:37AM -11.7111 10.3594 133° Southeast  Level Estimated
07:38AM -11.8024 10.4591 133° Southeast  Level Estimated
07:39AM -11.8937 10.5589 133° Southeast  Level Estimated
07:40AM -11.9849 10.6587 133° Southeast  Level Estimated
07:41AM -12.0761 10.7586 133° Southeast  Level Estimated
07:42AM -12.1672 10.8585 133° Southeast  Level Estimated
07:43AM -12.2583 10.9586 133° Southeast  Level Estimated
07:44AM -12.3494 11.0587 133° Southeast  Level Estimated
07:45AM -12.4404 11.1588 133° Southeast  Level Estimated
07:46AM -12.5314 11.2591 133° Southeast  Level Estimated
07:47AM -12.6224 11.3594 133° Southeast  Level Estimated
07:48AM -12.7133 11.4598 133° Southeast  Level Estimated
07:49AM -12.8042 11.5602 133° Southeast  Level Estimated
07:50AM -12.8950 11.6608 133° Southeast  Level Estimated
07:51AM -12.9859 11.7613 133° Southeast  Level Estimated
07:52AM -13.0766 11.8620 133° Southeast  Level Estimated
07:53AM -13.1673 11.9628 133° Southeast  Level Estimated
07:54AM -13.2580 12.0636 133° Southeast  Level Estimated
07:55AM -13.3487 12.1645 133° Southeast  Level Estimated
07:56AM -13.4393 12.2655 133° Southeast  Level Estimated
07:57AM -13.5299 12.3665 133° Southeast  Level Estimated
07:58AM -13.6204 12.4676 133° Southeast  Level Estimated
07:59AM -13.7109 12.5688 133° Southeast  Level Estimated
08:00AM -13.8013 12.6701 133° Southeast  Level Estimated
08:01AM -13.8918 12.7715 133° Southeast  Level Estimated
08:02AM -13.9821 12.8729 133° Southeast  Level Estimated
08:03AM -14.0724 12.9744 133° Southeast  Level Estimated
08:04AM -14.1627 13.0760 133° Southeast  Level Estimated
08:05AM -14.2530 13.1777 132° Southeast  Level Estimated
08:06AM -14.3432 13.2795 132° Southeast  Level Estimated
08:07AM -14.4333 13.3813 132° Southeast  Level Estimated
08:08AM -14.5234 13.4832 132° Southeast  Level Estimated
08:09AM -14.6135 13.5852 132° Southeast  Level Estimated
08:10AM -14.7035 13.6873 132° Southeast  Level Estimated
08:11AM -14.7935 13.7895 132° Southeast  Level Estimated
08:12AM -14.8834 13.8918 132° Southeast  Level Estimated
08:13AM -14.9733 13.9941 132° Southeast  Level Estimated
08:14AM -15.0632 14.0966 132° Southeast  Level Estimated
08:15AM -15.1529 14.1991 132° Southeast  Level Estimated
08:16AM -15.2427 14.3017 132° Southeast  Level Estimated
08:17AM -15.3324 14.4044 132° Southeast  Level Estimated
08:18AM -15.4220 14.5072 132° Southeast  Level Estimated
08:19AM -15.5117 14.6100 132° Southeast  Level Estimated
08:20AM -15.6012 14.7130 132° Southeast  Level Estimated
08:21AM -15.6907 14.8160 132° Southeast  Level Estimated
08:22AM -15.7802 14.9192 132° Southeast  Level Estimated
08:23AM -15.8696 15.0224 132° Southeast  Level Estimated
08:24AM -15.9590 15.1257 132° Southeast  Level Estimated
08:25AM -16.0483 15.2291 132° Southeast  Level Estimated
08:26AM -16.1376 15.3327 132° Southeast  Level Estimated
08:27AM -16.2268 15.4362 132° Southeast  Level Estimated
08:28AM -16.3159 15.5399 132° Southeast  Level Estimated
08:29AM -16.4051 15.6437 132° Southeast  Level Estimated
08:30AM -16.4941 15.7476 132° Southeast  Level Estimated
08:31AM -16.5831 15.8516 132° Southeast  Level Estimated
08:32AM -16.6721 15.9557 132° Southeast  Level Estimated
08:33AM -16.7610 16.0598 132° Southeast  Level Estimated
08:34AM -16.8499 16.1641 132° Southeast  Level Estimated
08:35AM -16.9387 16.2685 132° Southeast  Level Estimated
08:36AM -17.0274 16.3729 132° Southeast  Level Estimated
08:37AM -17.1161 16.4775 132° Southeast  Level Estimated
08:38AM -17.2048 16.5822 132° Southeast  Level Estimated
08:39AM -17.2933 16.6870 132° Southeast  Level Estimated
08:40AM -17.3819 16.7918 132° Southeast  Level Estimated
08:41AM -17.4704 16.8968 131° Southeast  Level Estimated
08:42AM -17.5588 17.0019 131° Southeast  Level Estimated
08:43AM -17.6472 17.1070 131° Southeast  Level Estimated
08:44AM -17.7355 17.2123 131° Southeast  Level Estimated
08:45AM -17.8237 17.3177 131° Southeast  Level Estimated
08:46AM -17.9119 17.4232 131° Southeast  Level Estimated
08:47AM -18.0001 17.5288 131° Southeast  Level Estimated
08:48AM -18.0882 17.6345 131° Southeast  Level Estimated
08:49AM -18.1762 17.7403 131° Southeast  Level Estimated
08:50AM -18.2642 17.8462 131° Southeast  Level Estimated
08:51AM -18.3521 17.9522 131° Southeast  Level Estimated
08:52AM -18.4400 18.0583 131° Southeast  Level Estimated
08:53AM -18.5278 18.1645 131° Southeast  Level Estimated
08:54AM -18.6155 18.2709 131° Southeast  Level Estimated
08:55AM -18.7032 18.3773 131° Southeast  Level Estimated
08:56AM -18.7908 18.4839 131° Southeast  Level Estimated
08:57AM -18.8783 18.5905 131° Southeast  Level Estimated
08:58AM -18.9659 18.6973 131° Southeast  Level Estimated
08:59AM -19.0533 18.8042 131° Southeast  Level Estimated
09:00AM -19.1406 18.9112 131° Southeast  Level Estimated
09:01AM -19.2280 19.0184 131° Southeast  Level Estimated
09:02AM -19.3152 19.1256 131° Southeast  Level Estimated
09:03AM -19.4024 19.2329 131° Southeast  Level Estimated
09:04AM -19.4895 19.3404 131° Southeast  Level Estimated
09:05AM -19.5766 19.4480 131° Southeast  Level Estimated
09:06AM -19.6636 19.5557 131° Southeast  Level Estimated
09:07AM -19.7505 19.6635 131° Southeast  Level Estimated
09:08AM -19.8374 19.7714 131° Southeast  Level Estimated
09:09AM -19.9242 19.8795 131° Southeast  Level Estimated
09:10AM -20.0109 19.9876 130° Southeast  Level Estimated
09:11AM -20.0976 20.0959 130° Southeast  Level Estimated
09:12AM -20.1842 20.2043 130° Southeast  Level Estimated
09:13AM -20.2707 20.3129 130° Southeast  Level Estimated
09:14AM -20.3572 20.4215 130° Southeast  Level Estimated
09:15AM -20.4436 20.5303 130° Southeast  Level Estimated
09:16AM -20.5299 20.6392 130° Southeast  Level Estimated
09:17AM -20.6162 20.7482 130° Southeast  Level Estimated
09:18AM -20.7024 20.8573 130° Southeast  Level Estimated
09:19AM -20.7885 20.9666 130° Southeast  Level Estimated
09:20AM -20.8746 21.0760 130° Southeast  Level Estimated
09:21AM -20.9606 21.1855 130° Southeast  Level Estimated
09:22AM -21.0465 21.2951 130° Southeast  Level Estimated
09:23AM -21.1324 21.4049 130° Southeast  Level Estimated
09:24AM -21.2181 21.5148 130° Southeast  Level Estimated
09:25AM -21.3039 21.6248 130° Southeast  Level Estimated
09:26AM -21.3895 21.7350 130° Southeast  Level Estimated
09:27AM -21.4751 21.8452 130° Southeast  Level Estimated
09:28AM -21.5606 21.9557 130° Southeast  Level Estimated
09:29AM -21.6460 22.0662 130° Southeast  Level Estimated
09:30AM -21.7313 22.1769 130° Southeast  Level Estimated
09:31AM -21.8166 22.2877 130° Southeast  Level Estimated
09:32AM -21.9018 22.3986 130° Southeast  Level Estimated
09:33AM -21.9869 22.5097 130° Southeast  Level Estimated
09:34AM -22.0720 22.6209 130° Southeast  Level Estimated
09:35AM -22.1569 22.7322 130° Southeast  Level Estimated
09:36AM -22.2418 22.8437 129° Southeast  Level Estimated
09:37AM -22.3267 22.9553 129° Southeast  Level Estimated
09:38AM -22.4114 23.0670 129° Southeast  Level Estimated
09:39AM -22.4961 23.1789 129° Southeast  Level Estimated
09:40AM -22.5807 23.2909 129° Southeast  Level Estimated
09:41AM -22.6652 23.4030 129° Southeast  Level Estimated
09:42AM -22.7496 23.5153 129° Southeast  Level Estimated
09:43AM -22.8340 23.6277 129° Southeast  Level Estimated
09:44AM -22.9183 23.7403 129° Southeast  Level Estimated
09:45AM -23.0025 23.8530 129° Southeast  Level Estimated
09:46AM -23.0866 23.9659 129° Southeast  Level Estimated
09:47AM -23.1706 24.0788 129° Southeast  Level Estimated
09:48AM -23.2546 24.1920 129° Southeast  Level Estimated
09:49AM -23.3385 24.3052 129° Southeast  Level Estimated
09:50AM -23.4223 24.4186 129° Southeast  Level Estimated
09:51AM -23.5060 24.5322 129° Southeast  Level Estimated
09:52AM -23.5896 24.6459 129° Southeast  Level Estimated
09:53AM -23.6732 24.7598 129° Southeast  Level Estimated
09:54AM -23.7566 24.8738 129° Southeast  Level Estimated
09:55AM -23.8400 24.9879 129° Southeast  Level Estimated
09:56AM -23.9233 25.1022 129° Southeast  Level Estimated
09:57AM -24.0065 25.2166 129° Southeast  Level Estimated
09:58AM -24.0897 25.3312 128° Southeast  Level Estimated
09:59AM -24.1727 25.4459 128° Southeast  Level Estimated
10:00AM -24.2557 25.5608 128° Southeast  Level Estimated
10:01AM -24.3385 25.6758 128° Southeast  Level Estimated
10:02AM -24.4213 25.7910 128° Southeast  Level Estimated
10:02AM -24.2900 24.9690 128° Southeast 539 620 39,000  Level FlightAware
10:03AM -24.5040 25.9063 128° Southeast  Level Estimated
10:03AM -24.3270 25.0740 111° Southeast 539 620 39,000  Level FlightAware
10:04AM -24.3970 25.2660 112° Southeast 541 623 39,000  Level FlightAware
10:05AM -24.4320 25.3650 111° Southeast 541 623 39,000  Level FlightAware
10:06AM -24.4690 25.4690 111° Southeast 541 623 39,000  Level FlightAware
10:06AM -24.5100 25.5840 111° Southeast 541 623 39,000  Level FlightAware
10:07AM -24.5460 25.6870 111° Southeast 540 621 39,000  Level FlightAware
10:08AM -24.5820 25.7880 111° Southeast 540 621 39,000  Level FlightAware
10:08AM -24.6430 25.8880 124° Southeast 532 612 39,000  Level FlightAware
10:09AM -24.7040 25.9740 128° Southeast 534 615 39,000  Level FlightAware
10:10AM -24.7730 26.0740 127° Southeast 536 617 39,000  Level FlightAware
10:10AM -24.8320 26.1580 128° Southeast 536 617 39,000  Level FlightAware
10:11AM -24.8920 26.2440 128° Southeast 536 617 39,000  Level FlightAware
10:12AM -24.9630 26.3450 128° Southeast 535 616 39,000  Level FlightAware
10:13AM -25.0210 26.4300 127° Southeast 537 618 39,000  Level FlightAware
10:13AM -25.0880 26.5260 128° Southeast 538 619 39,000  Level FlightAware
10:14AM -25.1490 26.6130 128° Southeast 540 621 39,000 -300 Level FlightAware
10:15AM -25.2090 26.7000 127° Southeast 541 623 38,600 -1,800 Descending FlightAware
10:15AM -25.2800 26.8030 127° Southeast 546 628 36,500 -2,760 Descending FlightAware
10:16AM -25.3380 26.8880 127° Southeast 548 631 34,700 -2,580 Descending FlightAware
10:17AM -25.4090 26.9910 127° Southeast 546 628 32,900 -2,400 Descending FlightAware
10:17AM -25.4700 27.0790 128° Southeast 542 624 31,300 -2,040 Descending FlightAware
10:18AM -25.5300 27.1680 127° Southeast 530 610 30,200 -1,140 Descending FlightAware
10:19AM -25.5950 27.2620 127° Southeast 498 573 29,700 -660 Descending FlightAware
10:20AM -25.6500 27.3420 127° Southeast 472 543 29,300 -900 Descending FlightAware
10:20AM -25.7070 27.4260 127° Southeast 458 527 28,500 -1,140 Descending FlightAware
10:21AM -25.7490 27.5020 122° Southeast 442 509 27,700 -1,200 Descending FlightAware
10:21AM -25.7540 27.5340 100° East 432 497 27,400 -1,500 Descending FlightAware
10:22AM -25.7430 27.5890 77° East 409 471 26,700 -1,560 Descending FlightAware
10:22AM -25.6900 27.6560 49° Northeast 372 428 25,600 -1,440 Descending FlightAware
10:23AM -25.6280 27.6800 19° North 339 390 24,700 -1,500 Descending FlightAware
10:24AM -25.5830 27.6760 355° North 323 372 23,900 -1,380 Descending FlightAware
10:24AM -25.5320 27.6460 332° Northwest 305 351 23,100 -900 Descending FlightAware
10:25AM -25.4980 27.5970 308° West 307 353 22,700 -840 Descending FlightAware
10:25AM -25.4890 27.5660 288° West 308 354 22,300 -1,440 Descending FlightAware
10:26AM -25.4920 27.5110 267° West 322 371 21,300 -1,200 Descending FlightAware
10:27AM -25.5280 27.4570 234° Southwest 338 389 20,600 -1,320 Descending FlightAware
10:27AM -25.5790 27.4360 200° South 357 411 19,800 -1,560 Descending FlightAware
10:28AM -25.6260 27.4450 170° South 372 428 19,200 -1,080 Descending FlightAware
10:28AM -25.6490 27.4620 146° Southeast 370 426 19,000 -480 Descending FlightAware
10:28AM -25.6900 27.5180 129° Southeast 346 398 18,800 -1,380 Descending FlightAware
10:29AM -25.7370 27.5850 128° Southeast 368 423 17,100 -1,740 Descending FlightAware
10:30AM -25.7780 27.6450 127° Southeast 361 415 16,400 -1,140 Descending FlightAware
10:31AM -25.8180 27.7030 127° Southeast 354 407 15,600 -1,560 Descending FlightAware
10:31AM -25.8600 27.7650 127° Southeast 338 389 14,200 -2,160 Descending FlightAware
10:32AM -25.8980 27.8200 128° Southeast 337 388 12,600 -1,860 Descending FlightAware
10:33AM -25.9410 27.8840 127° Southeast 327 376 11,600 -900 Descending FlightAware
10:33AM -25.9760 27.9350 127° Southeast 304 350 11,400 -420 Descending FlightAware
10:34AM -26.0090 27.9830 127° Southeast 284 327 11,100 -660 Descending FlightAware
10:35AM -26.0410 28.0340 125° Southeast 275 316 10,500 -780 Descending FlightAware
10:35AM -26.0420 28.0450 96° East 272 313 10,400 -780 Descending FlightAware
10:35AM -26.0250 28.0840 64° Northeast 253 291 10,000 -360 Descending FlightAware
10:36AM -25.9930 28.1210 46° Northeast 253 291 10,000 -420 Level FlightAware
10:36AM -25.9760 28.1400 45° Northeast 250 288 9,600 -1,080 Descending FlightAware
10:37AM -25.9560 28.1640 47° Northeast 246 283 9,200 -780 Descending FlightAware
10:37AM -25.9330 28.1900 45° Northeast 226 260 8,900 -600 Descending FlightAware
10:38AM -25.9220 28.2130 62° Northeast 217 250 8,700 -780 Descending FlightAware
10:38AM -25.9260 28.2450 98° East 210 242 8,200 -1,020 Descending FlightAware
10:39AM -25.9330 28.2720 106° East 201 231 7,800 -600 Descending FlightAware
10:39AM -25.9420 28.2820 135° Southeast 205 236 7,800 -420 Level FlightAware
10:39AM -25.9690 28.2930 160° South 206 237 7,500 -780 Descending FlightAware
10:40AM -25.9900 28.3000 163° South 195 224 7,100 -780 Descending FlightAware
10:40AM -26.0180 28.2930 193° South 184 212 6,800 -300 Descending FlightAware
10:41AM -26.0410 28.2860 195° South 168 193 6,800  Level FlightAware
10:41AM -26.0510 28.2830 195° South 164 189 6,800 -300 Level FlightAware
10:42AM -26.0700 28.2780 193° South 153 176 6,600 -600 Descending FlightAware
10:42AM -26.0880 28.2720 197° South 138 159 6,300 -720 Descending FlightAware
10:42AM -26.0980 28.2690 195° South 139 160 6,100 -720 Descending FlightAware
10:43AM -26.1090 28.2650 198° South 138 159 5,900 -720 Descending FlightAware
10:43AM -26.1370 28.2570 194° South 140 161 5,300 -420 Descending FlightAware
10:44AM -26.1500 28.2530 195° South 76 87 5,400 120 Climbing FlightAware
10:44AM -26.1530 28.2520 197° South 50 58 5,400  Level FlightAware
10:45AM -26.1560 28.2500 211° Southwest 13 15 5,400  Level FlightAware
10:45AM -26.1560 28.2490 270° West 10 12 5,400  Level FlightAware
10:45AM -26.1550 28.2490 360° North 9 10 5,400  Level FlightAware
10:46AM -26.1320 28.2580 19° North 13 15 5,400  Level FlightAware
10:46AM -26.1510 28.2500 201° Southwest 19 22 5,400  Level FlightAware
10:48AM -26.1440 28.2520 14° North 13 15 5,400  Level FlightAware
10:48AM -26.1420 28.2500 318° Northwest 21 24 5,400  Level FlightAware
10:48AM -26.1410 28.2480 299° West 24 28 5,400  Level FlightAware
10:49AM -26.1380 28.2440 310° West 29 33 5,400  Level FlightAware
10:49AM -26.1360 28.2430 336° Northwest 30 35 5,400  Level FlightAware
10:50AM -26.1340 28.2400 307° West 28 32 5,400  Level FlightAware
10:50AM -26.1330 28.2390 318° Northwest 21 24 5,400  Level FlightAware
10:50AM -26.1310 28.2370 318° Northwest 11 13 5,400  Level FlightAware
10:52AM -26.1310 28.2340 270° West 8 9 5,400  Level FlightAware
10:52AM -26.1320 28.2340 180° South 5 6 5,400  Level FlightAware
10:55AM -26.1392 28.2460 124° Southeast  Level Estimated